Time;durP1;ratioP1;P1;durP2;ratioP2;P2;SDS_P1;SDS_P2;PMS_P1;PMS_P2;Temp;Humidity;BMP_temperature;BMP_pressure;BME280_temperature;BME280_humidity;BME280_pressure;Samples;Min_cycle;Max_cycle;Signal;HPM_P1;HPM_P2
2021/12/24 00:00:37;;;;;;;4.80;2.70;;;;;;;7.32;73.89;96730.47;5037173;28;20040;-59
2021/12/24 00:03:04;;;;;;;9.05;3.03;;;;;;;7.22;73.93;96731.16;5035401;28;20655;-59
2021/12/24 00:05:32;;;;;;;7.57;3.05;;;;;;;7.20;74.20;96728.72;5027409;28;20087;-58
2021/12/24 00:07:59;;;;;;;8.98;2.80;;;;;;;7.07;74.31;96729.03;5034465;28;20051;-58
2021/12/24 00:10:26;;;;;;;5.78;2.50;;;;;;;7.01;74.45;96726.25;5043404;28;20052;-57
2021/12/24 00:12:59;;;;;;;7.32;3.42;;;;;;;7.01;74.29;96731.63;5032798;28;20040;-57
2021/12/24 00:18:14;;;;;;;6.35;2.83;;;;;;;6.94;74.57;96733.69;5026922;28;20037;-58
2021/12/24 00:21:56;;;;;;;5.35;2.65;;;;;;;6.86;74.96;96723.31;5042451;28;20049;-59
2021/12/24 00:37:24;;;;;;;5.88;2.90;;;;;;;5.59;78.68;96725.75;5037239;28;20052;-59
2021/12/24 00:40:26;;;;;;;8.00;3.80;;;;;;;5.59;78.30;96726.59;5028422;28;20504;-59
2021/12/24 00:42:53;;;;;;;6.50;3.95;;;;;;;5.50;78.37;96725.31;5037772;28;20049;-59
2021/12/24 00:45:24;;;;;;;7.43;3.75;;;;;;;5.47;78.30;96715.03;5028258;28;20390;-58
2021/12/24 00:47:51;;;;;;;6.25;3.33;;;;;;;5.54;77.71;96712.22;5044256;28;20055;-58
2021/12/24 00:50:23;;;;;;;6.63;3.38;;;;;;;5.49;77.91;96707.53;5042815;28;20095;-55
2021/12/24 00:52:58;;;;;;;;;;;;;;;5.47;78.34;96704.28;5038886;28;20041;-57
2021/12/24 00:55:28;;;;;;;5.88;3.03;;;;;;;5.36;78.03;96700.56;5026295;28;19921;-59
2021/12/24 00:57:58;;;;;;;7.88;3.55;;;;;;;5.09;78.50;96701.06;5029683;28;20064;-57
2021/12/24 01:00:35;;;;;;;6.88;3.42;;;;;;;4.95;78.83;96697.78;5035971;28;20037;-58
2021/12/24 01:03:05;;;;;;;6.55;3.50;;;;;;;4.85;79.95;96710.94;5035932;28;20119;-57
2021/12/24 01:05:33;;;;;;;6.90;3.40;;;;;;;4.93;79.71;96714.09;5025058;28;20049;-58
2021/12/24 01:08:00;;;;;;;6.40;3.15;;;;;;;4.75;80.09;96708.84;5029684;28;20088;-59
2021/12/24 01:10:31;;;;;;;6.13;3.03;;;;;;;4.73;79.71;96706.38;5005402;28;20440;-58
2021/12/24 01:12:59;;;;;;;5.45;3.00;;;;;;;4.60;79.97;96704.72;5017128;28;20041;-59
2021/12/24 01:15:28;;;;;;;7.95;3.42;;;;;;;4.68;80.34;96701.69;5024474;28;20161;-59
2021/12/24 01:23:24;;;;;;;5.15;3.35;;;;;;;4.42;81.61;96694.88;5029816;28;20055;-59
2021/12/24 01:25:44;;;;;;;7.43;3.30;;;;;;;4.16;81.88;96687.00;5016984;28;20042;-59
2021/12/24 01:28:40;;;;;;;7.30;3.20;;;;;;;4.19;83.04;96692.94;5033500;28;20045;-58
2021/12/24 01:45:00;;;;;;;7.10;3.03;;;;;;;4.03;81.47;96708.63;5009720;28;20593;-57
2021/12/24 01:47:26;;;;;;;7.25;3.00;;;;;;;3.96;82.59;96695.31;5024988;28;20049;-58
2021/12/24 01:49:53;;;;;;;7.57;3.35;;;;;;;3.71;83.07;96690.88;5036002;28;20049;-57
2021/12/24 01:52:22;;;;;;;6.22;3.53;;;;;;;3.94;82.98;96689.34;5024791;28;20468;-57
2021/12/24 01:54:53;;;;;;;7.15;3.28;;;;;;;3.76;83.49;96696.38;5025585;28;20128;-57
2021/12/24 01:57:20;;;;;;;7.60;3.45;;;;;;;3.72;83.55;96697.84;5024300;28;20053;-59
2021/12/24 01:59:46;;;;;;;6.78;3.03;;;;;;;3.81;83.30;96685.00;5024583;28;20046;-59
2021/12/24 02:02:13;;;;;;;5.80;2.85;;;;;;;3.95;83.24;96682.13;5044316;28;20033;-59
2021/12/24 02:04:40;;;;;;;5.68;3.22;;;;;;;4.06;82.64;96684.06;5044982;28;20516;-59
2021/12/24 02:07:06;;;;;;;5.40;2.90;;;;;;;4.24;82.38;96685.06;5025640;28;20065;-59
2021/12/24 02:09:34;;;;;;;6.63;3.03;;;;;;;4.31;81.82;96691.13;5027222;28;20034;-59
2021/12/24 02:12:05;;;;;;;6.82;3.10;;;;;;;4.41;81.30;96680.66;5030509;28;20041;-59
2021/12/24 02:14:36;;;;;;;6.05;2.85;;;;;;;4.47;81.52;96684.31;5029606;28;20041;-58
2021/12/24 02:17:31;;;;;;;5.13;2.60;;;;;;;4.58;80.92;96668.47;5025324;28;20041;-59
2021/12/24 02:28:57;;;;;;;6.88;2.90;;;;;;;4.70;80.87;96661.25;5035589;28;20477;-59
2021/12/24 02:31:22;;;;;;;7.22;2.72;;;;;;;4.55;81.72;96665.19;5028187;28;20057;-59
2021/12/24 02:33:49;;;;;;;4.43;2.33;;;;;;;4.48;82.16;96651.06;5022356;28;20693;-59
2021/12/24 02:36:16;;;;;;;5.78;2.92;;;;;;;4.61;81.52;96660.75;5034434;28;20056;-59
2021/12/24 02:38:43;;;;;;;5.97;2.80;;;;;;;4.52;81.39;96640.69;5045219;28;20463;-59
2021/12/24 02:41:11;;;;;;;4.93;2.80;;;;;;;4.33;82.18;96632.75;5035793;28;20107;-59
2021/12/24 02:43:40;;;;;;;5.72;3.10;;;;;;;4.32;82.67;96632.97;5043653;28;20475;-56
2021/12/24 02:46:14;;;;;;;5.30;2.60;;;;;;;4.21;83.33;96624.69;5040037;28;20040;-59
2021/12/24 02:54:08;;;;;;;8.00;2.67;;;;;;;4.73;81.61;96627.78;5010254;28;20042;-58
2021/12/24 02:56:38;;;;;;;5.20;2.53;;;;;;;4.53;82.12;96620.88;5032658;28;20533;-58
2021/12/24 02:59:10;;;;;;;5.05;2.40;;;;;;;4.61;82.15;96625.09;5043187;28;20423;-58
2021/12/24 03:01:40;;;;;;;5.28;2.72;;;;;;;4.44;82.83;96623.09;5039116;28;20033;-58
2021/12/24 03:04:08;;;;;;;5.60;2.67;;;;;;;4.51;82.56;96614.94;5037290;28;20045;-57
2021/12/24 03:06:39;;;;;;;8.00;2.65;;;;;;;4.55;82.37;96614.25;5035512;28;20203;-57
2021/12/24 03:09:09;;;;;;;4.93;2.58;;;;;;;4.70;82.04;96612.97;5023786;28;20096;-56
2021/12/24 03:11:36;;;;;;;7.20;2.65;;;;;;;4.88;82.60;96628.16;5041051;28;20041;-57
2021/12/24 03:14:06;;;;;;;3.75;2.00;;;;;;;4.80;82.23;96620.44;5033946;28;20500;-57
2021/12/24 03:16:35;;;;;;;6.43;2.55;;;;;;;4.78;81.98;96617.16;5040926;28;20053;-58
2021/12/24 03:19:02;;;;;;;6.13;2.72;;;;;;;4.84;81.82;96623.47;5032451;28;20052;-58
2021/12/24 03:21:43;;;;;;;5.63;2.75;;;;;;;4.94;81.86;96608.41;5039895;28;20041;-58
2021/12/24 03:26:46;;;;;;;6.80;2.83;;;;;;;5.47;80.24;96602.25;5037633;28;20040;-56
2021/12/24 03:29:16;;;;;;;5.82;1.73;;;;;;;5.41;80.30;96600.50;5024610;28;20041;-58
2021/12/24 03:31:44;;;;;;;4.93;2.40;;;;;;;5.40;79.87;96588.97;5026948;28;20140;-56
2021/12/24 03:34:13;;;;;;;4.63;2.50;;;;;;;5.35;81.16;96586.19;5027415;28;20042;-57
2021/12/24 03:36:40;;;;;;;6.03;2.67;;;;;;;5.30;80.26;96576.16;5037928;28;20724;-58
2021/12/24 03:39:09;;;;;;;6.13;2.40;;;;;;;5.42;80.61;96572.63;5026559;28;20049;-56
2021/12/24 03:41:37;;;;;;;4.78;2.60;;;;;;;5.49;80.94;96573.28;5040100;28;20045;-56
2021/12/24 03:44:04;;;;;;;5.82;2.50;;;;;;;5.28;81.13;96578.28;5025619;28;20052;-58
2021/12/24 03:46:41;;;;;;;5.47;2.67;;;;;;;5.52;82.56;96582.72;5035985;28;20416;-58
2021/12/24 03:49:17;;;;;;;6.20;2.38;;;;;;;6.52;80.27;96561.91;5027237;28;20644;-59
2021/12/24 03:51:54;;;;;;;4.97;2.25;;;;;;;6.88;78.85;96563.25;5027626;28;20042;-58
2021/12/24 03:57:05;;;;;;;4.15;2.47;;;;;;;7.91;74.89;96551.22;5042546;28;20508;-55
2021/12/24 03:59:54;;;;;;;6.35;2.40;;;;;;;8.20;73.83;96565.25;4990519;28;20061;-56
2021/12/24 04:02:50;;;;;;;5.63;2.42;;;;;;;8.29;73.51;96565.56;5033432;28;20419;-56
2021/12/24 04:05:46;;;;;;;3.83;1.83;;;;;;;8.37;72.88;96561.59;5026229;28;20048;-58
2021/12/24 04:08:42;;;;;;;4.78;2.15;;;;;;;8.43;72.79;96557.03;5036883;28;20132;-56
2021/12/24 04:11:16;;;;;;;5.82;1.98;;;;;;;8.42;72.51;96550.03;5042561;28;20048;-58
2021/12/24 04:13:43;;;;;;;3.83;2.10;;;;;;;8.43;72.50;96555.16;5040802;28;20703;-55
2021/12/24 04:16:10;;;;;;;4.35;2.28;;;;;;;8.44;72.68;96558.69;5042991;28;20098;-56
2021/12/24 04:26:52;;;;;;;3.97;1.75;;;;;;;8.38;72.63;96552.44;5007510;28;20045;-58
2021/12/24 04:29:19;;;;;;;5.75;2.17;;;;;;;8.33;72.89;96547.81;5014338;28;20228;-55
2021/12/24 04:32:08;;;;;;;4.90;2.40;;;;;;;8.37;72.98;96552.69;5044040;28;20041;-54
2021/12/24 04:35:03;;;;;;;6.57;2.60;;;;;;;8.28;73.40;96546.94;5038729;28;20060;-57
2021/12/24 04:51:03;;;;;;;4.72;2.35;;;;;;;8.46;72.81;96541.19;5023326;28;20077;-58
2021/12/24 04:51:51;;;;;;;4.22;2.10;;;;;;;8.37;73.19;96550.00;5025763;28;20049;-60
2021/12/24 05:02:54;;;;;;;4.40;2.30;;;;;;;8.36;73.07;96549.16;5024704;28;20072;-56
2021/12/24 05:05:36;;;;;;;7.25;2.35;;;;;;;8.41;73.40;96549.19;5033286;28;20051;-56
2021/12/24 05:10:40;;;;;;;5.15;2.03;;;;;;;8.41;73.16;96549.19;5044487;28;20007;-58
2021/12/24 05:13:12;;;;;;;4.78;2.17;;;;;;;8.35;73.29;96544.03;5028000;28;20045;-58
2021/12/24 05:16:19;;;;;;;4.80;2.17;;;;;;;8.36;73.34;96534.88;5023108;28;20037;-56
2021/12/24 05:21:55;;;;;;;4.22;2.10;;;;;;;8.41;73.08;96533.03;5027893;28;20562;-58
2021/12/24 05:24:26;;;;;;;5.85;2.58;;;;;;;8.43;72.84;96532.75;5037972;28;20034;-58
2021/12/24 05:26:57;;;;;;;5.93;2.17;;;;;;;8.39;72.99;96535.19;5025135;28;20058;-57
2021/12/24 05:29:24;;;;;;;4.93;2.30;;;;;;;8.40;72.97;96538.69;5037841;28;20057;-56
2021/12/24 05:31:51;;;;;;;5.13;2.72;;;;;;;8.35;73.01;96544.84;5029052;28;20053;-58
2021/12/24 05:34:18;;;;;;;5.22;2.50;;;;;;;8.41;73.02;96540.31;5025057;28;20040;-57
2021/12/24 05:36:48;;;;;;;5.45;2.60;;;;;;;8.47;72.83;96536.56;5029387;28;20041;-57
2021/12/24 05:39:17;;;;;;;4.72;2.42;;;;;;;8.44;72.72;96543.31;5021964;28;20481;-57
2021/12/24 05:41:46;;;;;;;8.00;2.70;;;;;;;8.40;73.09;96538.69;5023153;28;20047;-58
2021/12/24 05:44:16;;;;;;;5.30;2.83;;;;;;;8.47;72.86;96531.19;5030663;28;20072;-58
2021/12/24 05:46:46;;;;;;;5.03;2.53;;;;;;;8.42;73.08;96544.63;5037535;28;20047;-58
2021/12/24 05:49:31;;;;;;;5.10;2.58;;;;;;;8.41;73.04;96538.41;5035187;28;20056;-60
2021/12/24 05:52:21;;;;;;;7.43;2.75;;;;;;;8.38;73.16;96536.25;5044630;28;20085;-61
2021/12/24 05:54:56;;;;;;;6.28;2.60;;;;;;;8.36;73.80;96538.38;5042533;28;20128;-61
2021/12/24 05:57:23;;;;;;;5.20;2.60;;;;;;;8.39;73.26;96540.56;5035534;28;20136;-61
2021/12/24 05:59:50;;;;;;;5.47;2.70;;;;;;;8.47;73.47;96547.38;5035435;28;20049;-61
2021/12/24 06:02:17;;;;;;;7.28;2.97;;;;;;;8.50;73.43;96546.03;5022567;28;20041;-61
2021/12/24 06:04:44;;;;;;;6.25;3.00;;;;;;;8.53;73.31;96556.34;5028234;28;20132;-62
2021/12/24 06:07:10;;;;;;;5.78;2.80;;;;;;;8.55;73.57;96543.41;5024693;28;20041;-62
2021/12/24 06:09:37;;;;;;;5.38;2.97;;;;;;;8.63;73.33;96544.81;5036073;28;20049;-62
2021/12/24 06:12:04;;;;;;;6.00;3.25;;;;;;;8.60;73.25;96546.16;5039411;28;20115;-62
2021/12/24 06:14:31;;;;;;;5.05;3.20;;;;;;;8.52;73.63;96550.09;5035712;28;20653;-62
2021/12/24 06:17:09;;;;;;;6.53;2.88;;;;;;;8.50;73.93;96560.34;5028679;28;20887;-61
2021/12/24 06:19:36;;;;;;;6.00;2.90;;;;;;;8.48;74.09;96551.72;5025772;28;20072;-62
2021/12/24 06:22:03;;;;;;;9.25;3.03;;;;;;;8.46;73.99;96543.03;5028921;28;20052;-62
2021/12/24 06:24:29;;;;;;;6.97;3.28;;;;;;;8.45;74.17;96547.63;5027010;28;20103;-62
2021/12/24 06:26:56;;;;;;;5.05;2.50;;;;;;;8.40;74.21;96546.78;5025628;28;20095;-61
2021/12/24 06:29:23;;;;;;;5.18;2.70;;;;;;;8.43;73.96;96546.25;5028419;28;20424;-62
2021/12/24 06:31:50;;;;;;;6.72;2.70;;;;;;;8.42;74.22;96550.84;5029983;28;20106;-62
2021/12/24 06:34:18;;;;;;;5.63;2.58;;;;;;;8.47;73.91;96566.25;5038147;28;20052;-62
2021/12/24 06:36:47;;;;;;;4.68;2.50;;;;;;;8.30;74.18;96561.81;5026114;28;20045;-62
2021/12/24 06:39:15;;;;;;;4.88;2.80;;;;;;;8.16;74.53;96558.75;5027007;28;20049;-62
2021/12/24 06:41:43;;;;;;;5.68;3.05;;;;;;;8.09;74.57;96560.00;5020909;28;20416;-61
2021/12/24 06:44:11;;;;;;;7.05;2.60;;;;;;;8.12;75.15;96560.31;5015187;28;20029;-61
2021/12/24 06:46:40;;;;;;;6.20;2.80;;;;;;;8.14;74.93;96565.47;5025251;28;20041;-60
2021/12/24 06:49:08;;;;;;;4.70;2.42;;;;;;;8.09;77.17;96562.69;5027035;28;20053;-60
2021/12/24 06:51:36;;;;;;;5.88;3.38;;;;;;;8.07;75.63;96566.47;5027863;28;20034;-59
2021/12/24 06:54:03;;;;;;;6.07;2.95;;;;;;;8.15;75.36;96573.28;5027716;28;20578;-57
2021/12/24 06:56:30;;;;;;;4.97;2.60;;;;;;;8.21;75.14;96566.03;5035698;28;20073;-58
2021/12/24 06:58:57;;;;;;;5.97;3.17;;;;;;;8.07;75.30;96568.34;5028514;28;20037;-59
2021/12/24 07:01:24;;;;;;;6.13;2.95;;;;;;;8.06;75.52;96564.03;5026755;28;20045;-59
2021/12/24 07:03:53;;;;;;;4.57;2.45;;;;;;;8.00;75.79;96557.75;5033715;28;20121;-59
2021/12/24 07:06:22;;;;;;;5.03;2.60;;;;;;;8.00;75.70;96565.84;5048273;28;20675;-57
2021/12/24 07:08:49;;;;;;;7.25;3.83;;;;;;;7.87;76.84;96563.56;5029276;28;20459;-57
2021/12/24 07:11:15;;;;;;;7.70;3.20;;;;;;;7.88;77.34;96566.00;5027854;28;20056;-57
2021/12/24 07:13:42;;;;;;;4.85;2.65;;;;;;;7.76;77.90;96568.88;5038441;28;20037;-56
2021/12/24 07:16:08;;;;;;;6.75;3.38;;;;;;;7.50;79.04;96571.28;5048042;28;20037;-55
2021/12/24 07:18:37;;;;;;;4.93;3.03;;;;;;;7.49;78.95;96579.63;5030269;28;20124;-58
2021/12/24 07:21:05;;;;;;;5.63;2.92;;;;;;;7.38;79.27;96573.28;5029156;28;20049;-57
2021/12/24 07:23:31;;;;;;;8.23;4.10;;;;;;;7.37;79.33;96567.09;5037910;28;20393;-55
2021/12/24 07:25:58;;;;;;;7.40;3.80;;;;;;;7.47;78.93;96571.78;5031358;28;20048;-56
2021/12/24 07:28:24;;;;;;;6.63;3.95;;;;;;;7.27;79.67;96581.22;5027196;28;20033;-58
2021/12/24 07:30:51;;;;;;;5.72;3.10;;;;;;;7.39;79.05;96588.38;5023146;28;20049;-57
2021/12/24 07:33:18;;;;;;;6.22;2.97;;;;;;;7.31;79.91;96564.59;5029478;28;20045;-58
2021/12/24 07:35:45;;;;;;;7.00;4.00;;;;;;;7.16;80.36;96557.94;5034316;28;20044;-54
2021/12/24 07:38:13;;;;;;;7.38;3.28;;;;;;;7.26;79.64;96555.38;5028827;28;20053;-53
2021/12/24 07:40:45;;;;;;;6.40;3.20;;;;;;;7.37;79.49;96559.00;5025496;28;20057;-58
2021/12/24 07:43:11;;;;;;;10.00;3.53;;;;;;;7.44;79.20;96568.78;5025380;28;20052;-57
2021/12/24 07:45:40;;;;;;;7.85;4.10;;;;;;;7.20;80.03;96561.78;5026779;28;20045;-58
2021/12/24 07:48:26;;;;;;;8.45;4.30;;;;;;;7.21;80.26;96568.78;5029807;28;20041;-58
2021/12/24 07:53:20;;;;;;;9.07;4.00;;;;;;;7.01;80.86;96570.13;5026661;28;20045;-61
2021/12/24 07:55:47;;;;;;;7.22;3.85;;;;;;;6.80;81.61;96576.28;5036767;28;20264;-61
2021/12/24 07:58:15;;;;;;;9.35;4.40;;;;;;;6.61;82.70;96577.41;5024737;28;20052;-62
2021/12/24 08:00:43;;;;;;;6.25;3.83;;;;;;;6.58;83.00;96560.91;5021425;28;20041;-62
2021/12/24 08:03:11;;;;;;;62.05;27.35;;;;;;;6.52;82.86;96559.22;5029711;28;20128;-62
2021/12/24 08:05:40;;;;;;;31.58;15.90;;;;;;;6.49;83.26;96560.53;5028401;28;20112;-61
2021/12/24 08:08:08;;;;;;;24.73;11.48;;;;;;;6.50;82.85;96567.53;5027927;28;20128;-62
2021/12/24 08:10:37;;;;;;;16.17;8.57;;;;;;;6.51;82.80;96558.41;5025510;28;20049;-62
2021/12/24 08:13:05;;;;;;;10.23;6.10;;;;;;;6.52;82.59;96564.59;5029889;28;20064;-61
2021/12/24 08:15:32;;;;;;;9.27;4.85;;;;;;;6.66;82.15;96568.56;5025292;28;20103;-61
2021/12/24 08:17:58;;;;;;;7.47;4.40;;;;;;;6.66;81.83;96568.56;5029831;28;20103;-62
2021/12/24 08:20:26;;;;;;;9.65;4.68;;;;;;;6.69;82.29;96567.25;5032123;28;20045;-61
2021/12/24 08:22:55;;;;;;;7.32;3.97;;;;;;;6.77;81.42;96574.91;5021695;28;20053;-60
2021/12/24 08:25:24;;;;;;;7.45;4.13;;;;;;;6.92;81.23;96578.91;5024449;28;20045;-61
2021/12/24 08:27:50;;;;;;;11.20;5.00;;;;;;;6.60;82.45;96565.00;5024963;28;20107;-62
2021/12/24 08:30:17;;;;;;;14.73;7.78;;;;;;;6.43;83.29;96566.88;5025390;28;20037;-60
2021/12/24 08:32:44;;;;;;;8.98;4.40;;;;;;;6.45;83.16;96573.63;5024548;28;20049;-61
2021/12/24 08:35:15;;;;;;;30.13;12.70;;;;;;;6.49;82.76;96577.47;5024198;28;20764;-60
2021/12/24 08:37:42;;;;;;;19.35;8.48;;;;;;;6.46;82.96;96577.97;5026222;28;20636;-61
2021/12/24 08:40:10;;;;;;;32.22;12.07;;;;;;;6.45;83.01;96573.63;5025327;28;20044;-60
2021/12/24 08:42:37;;;;;;;16.52;6.95;;;;;;;6.34;82.97;96571.88;5023611;28;20045;-60
2021/12/24 08:45:05;;;;;;;16.38;7.63;;;;;;;6.37;83.73;96566.81;5038200;28;20049;-60
2021/12/24 08:47:32;;;;;;;8.23;4.78;;;;;;;6.58;82.18;96571.69;5024060;28;20038;-61
2021/12/24 08:49:58;;;;;;;9.23;5.25;;;;;;;6.54;81.97;96573.22;5023212;28;20463;-60
2021/12/24 08:52:25;;;;;;;20.13;9.82;;;;;;;6.43;82.62;96567.69;5025330;28;20546;-61
2021/12/24 08:54:52;;;;;;;22.90;10.07;;;;;;;6.30;83.45;96568.03;5024403;28;20579;-61
2021/12/24 08:57:18;;;;;;;9.77;5.18;;;;;;;6.44;82.15;96563.13;5029816;28;20041;-60
2021/12/24 08:59:45;;;;;;;31.52;15.88;;;;;;;6.37;82.72;96558.72;5028471;28;20048;-61
2021/12/24 09:02:16;;;;;;;18.08;8.73;;;;;;;6.25;83.16;96560.69;5033018;28;20128;-62
2021/12/24 09:04:43;;;;;;;8.88;3.63;;;;;;;6.44;82.77;96569.31;5024322;28;20056;-60
2021/12/24 09:07:10;;;;;;;8.32;4.28;;;;;;;6.53;82.12;96568.91;5023305;28;20574;-61
2021/12/24 09:09:37;;;;;;;8.30;3.97;;;;;;;6.57;82.22;96562.81;5024489;28;20048;-60
2021/12/24 09:12:04;;;;;;;14.43;5.70;;;;;;;6.57;82.64;96567.38;5024852;28;20045;-61
2021/12/24 09:14:30;;;;;;;9.70;5.38;;;;;;;6.58;83.20;96558.22;5032114;28;20115;-60
2021/12/24 09:17:00;;;;;;;7.68;4.10;;;;;;;6.66;83.68;96559.72;5024712;28;20042;-60
2021/12/24 09:19:28;;;;;;;6.63;3.70;;;;;;;6.85;82.82;96555.66;5023604;28;20049;-60
2021/12/24 09:21:57;;;;;;;8.18;4.15;;;;;;;6.76;83.27;96552.59;5029592;28;20573;-60
2021/12/24 09:24:26;;;;;;;9.63;4.30;;;;;;;6.92;83.42;96557.38;5024415;28;20121;-61
2021/12/24 09:26:56;;;;;;;7.22;4.10;;;;;;;7.03;83.33;96557.25;5022462;28;20151;-59
2021/12/24 09:29:24;;;;;;;8.85;3.70;;;;;;;6.91;83.50;96556.56;5024711;28;20128;-61
2021/12/24 09:31:52;;;;;;;10.43;5.30;;;;;;;6.58;85.51;96560.91;5024664;28;20123;-61
2021/12/24 09:34:18;;;;;;;9.65;4.70;;;;;;;6.55;85.37;96559.53;5024494;28;20049;-62
2021/12/24 09:36:45;;;;;;;8.68;3.95;;;;;;;6.64;85.63;96557.25;5023381;28;20044;-60
2021/12/24 09:39:13;;;;;;;7.80;4.25;;;;;;;6.81;85.07;96559.09;5023492;28;20060;-62
2021/12/24 09:41:40;;;;;;;6.28;3.63;;;;;;;6.88;84.84;96557.88;5022101;28;20444;-61
2021/12/24 09:44:08;;;;;;;12.82;4.03;;;;;;;6.84;84.85;96558.59;5023594;28;20302;-63
2021/12/24 09:46:36;;;;;;;8.27;3.50;;;;;;;6.74;84.46;96560.09;5021861;28;20133;-61
2021/12/24 09:49:03;;;;;;;7.57;3.50;;;;;;;6.89;84.76;96561.34;5025840;28;20046;-61
2021/12/24 09:51:36;;;;;;;6.07;3.65;;;;;;;6.93;84.58;96565.19;5022444;28;20050;-61
2021/12/24 09:54:13;;;;;;;9.13;3.60;;;;;;;6.89;84.42;96554.09;5024330;28;20045;-62
2021/12/24 09:56:40;;;;;;;5.90;3.53;;;;;;;6.88;84.39;96565.09;5028515;28;20041;-60
2021/12/24 09:59:07;;;;;;;6.03;3.50;;;;;;;6.86;84.72;96564.56;5023775;28;20346;-62
2021/12/24 10:01:39;;;;;;;6.78;4.00;;;;;;;6.78;84.90;96554.22;5019247;28;20112;-61
2021/12/24 10:04:10;;;;;;;8.70;3.97;;;;;;;6.76;85.08;96555.28;5023473;28;20073;-61
2021/12/24 10:06:39;;;;;;;7.28;3.78;;;;;;;6.73;85.40;96547.69;5022317;28;20037;-62
2021/12/24 10:09:08;;;;;;;36.47;15.05;;;;;;;6.52;86.25;96546.56;5019686;28;20045;-63
2021/12/24 10:11:51;;;;;;;9.90;4.68;;;;;;;6.53;86.02;96540.16;5023520;28;20043;-62
2021/12/24 10:14:20;;;;;;;9.35;4.60;;;;;;;6.63;86.53;96542.97;5023578;28;20052;-61
2021/12/24 10:16:50;;;;;;;11.05;4.45;;;;;;;6.66;85.83;96540.88;5031775;28;20045;-64
2021/12/24 10:19:19;;;;;;;8.52;4.78;;;;;;;6.73;86.18;96534.25;5038184;28;20056;-62
2021/12/24 10:21:47;;;;;;;8.50;4.60;;;;;;;6.79;85.46;96531.63;5032447;28;20624;-62
2021/12/24 10:24:18;;;;;;;10.48;5.30;;;;;;;6.69;85.75;96530.44;5027109;28;20048;-62
2021/12/24 10:26:48;;;;;;;12.15;5.28;;;;;;;6.71;85.98;96536.34;5033638;28;20053;-60
2021/12/24 10:29:17;;;;;;;8.27;5.05;;;;;;;6.65;85.78;96526.59;5015103;28;20545;-61
2021/12/24 10:31:51;;;;;;;11.77;4.65;;;;;;;6.76;85.59;96514.09;5019007;28;20052;-60
2021/12/24 10:34:27;;;;;;;8.82;5.22;;;;;;;6.68;86.13;96517.22;5025731;28;20103;-61
2021/12/24 10:37:00;;;;;;;8.88;4.75;;;;;;;6.74;86.08;96510.84;5026629;28;20045;-61
2021/12/24 10:39:38;;;;;;;11.10;5.32;;;;;;;6.73;85.54;96504.66;5026059;28;20084;-61
2021/12/24 10:42:18;;;;;;;9.30;5.05;;;;;;;6.74;85.85;96508.13;5021526;28;20504;-62
2021/12/24 10:44:47;;;;;;;12.13;5.00;;;;;;;6.84;85.79;96502.91;5025616;28;20057;-62
2021/12/24 10:47:17;;;;;;;10.90;5.07;;;;;;;6.98;85.15;96499.84;5014781;28;20041;-61
2021/12/24 10:49:55;;;;;;;7.05;4.18;;;;;;;7.01;84.24;96500.16;5037122;28;20052;-62
2021/12/24 10:54:51;;;;;;;6.60;4.28;;;;;;;6.91;84.67;96497.34;5024379;28;20496;-63
2021/12/24 10:57:19;;;;;;;6.82;4.60;;;;;;;6.93;85.37;96491.72;5037418;28;20037;-62
2021/12/24 10:59:50;;;;;;;7.35;4.15;;;;;;;6.90;85.95;96487.66;5044356;28;20033;-62
2021/12/24 11:02:17;;;;;;;6.28;3.88;;;;;;;6.84;85.59;96489.47;5037717;28;20052;-62
2021/12/24 11:04:44;;;;;;;9.82;4.90;;;;;;;6.89;85.73;96491.38;5042779;28;20064;-61
2021/12/24 11:07:40;;;;;;;8.10;4.50;;;;;;;6.86;86.38;96481.94;5039466;28;20041;-62
2021/12/24 11:10:14;;;;;;;5.45;3.60;;;;;;;6.93;85.75;96487.13;5025194;28;20057;-62
2021/12/24 11:12:44;;;;;;;7.75;4.07;;;;;;;6.90;85.75;96491.13;5044602;28;20110;-61
2021/12/24 11:15:26;;;;;;;7.63;4.43;;;;;;;7.01;85.58;96488.59;5024840;28;20117;-63
2021/12/24 11:17:56;;;;;;;6.93;3.28;;;;;;;7.22;83.44;96480.75;5041009;28;20125;-62
2021/12/24 11:20:23;;;;;;;6.85;3.60;;;;;;;7.21;83.72;96481.78;5037134;28;20678;-61
2021/12/24 11:23:09;;;;;;;8.45;4.10;;;;;;;7.11;83.95;96486.00;5026174;28;20056;-61
2021/12/24 11:25:57;;;;;;;5.97;2.95;;;;;;;7.16;83.85;96483.38;5029353;28;20049;-62
2021/12/24 11:28:26;;;;;;;5.60;3.25;;;;;;;7.19;83.87;96482.03;5030198;28;20061;-69
2021/12/24 11:30:56;;;;;;;4.97;3.13;;;;;;;7.18;84.42;96476.94;5029066;28;20562;-63
2021/12/24 11:33:29;;;;;;;4.88;2.88;;;;;;;7.22;83.98;96473.47;5041017;28;20597;-63
2021/12/24 11:35:57;;;;;;;4.78;2.33;;;;;;;7.36;83.62;96478.47;5036209;28;20114;-63
2021/12/24 11:38:39;;;;;;;5.07;2.38;;;;;;;7.49;83.24;96474.56;5044131;28;20049;-64
2021/12/24 11:41:11;;;;;;;3.05;1.70;;;;;;;7.49;82.92;96475.34;5038881;28;20060;-63
2021/12/24 11:43:42;;;;;;;5.47;2.08;;;;;;;7.49;83.11;96474.56;5031831;28;20059;-61
2021/12/24 11:46:12;;;;;;;2.85;2.17;;;;;;;7.41;83.91;96470.44;5046166;28;20041;-63
2021/12/24 11:48:38;;;;;;;6.50;2.28;;;;;;;7.31;84.60;96465.78;5031774;28;20145;-68
2021/12/24 11:51:14;;;;;;;7.10;2.45;;;;;;;7.32;84.52;96461.19;5038112;28;20041;-65
2021/12/24 11:53:42;;;;;;;7.85;4.05;;;;;;;7.16;85.48;96459.13;5028855;28;20042;-66
2021/12/24 11:56:13;;;;;;;7.28;2.10;;;;;;;7.36;84.98;96465.00;5025753;28;20041;-63
2021/12/24 11:58:45;;;;;;;7.80;2.67;;;;;;;7.45;84.38;96454.59;5027836;28;20563;-62
2021/12/24 12:01:15;;;;;;;7.70;2.60;;;;;;;7.57;84.58;96452.56;5041918;28;20051;-64
2021/12/24 12:03:46;;;;;;;6.13;2.08;;;;;;;7.55;84.34;96451.97;5034709;28;20418;-65
2021/12/24 12:06:24;;;;;;;4.57;2.00;;;;;;;7.67;84.06;96439.16;5041811;28;20048;-64
2021/12/24 12:09:00;;;;;;;4.47;1.88;;;;;;;7.94;82.79;96432.09;5036342;28;20041;-63
2021/12/24 12:11:35;;;;;;;5.10;1.52;;;;;;;8.11;82.09;96431.16;5026889;28;20060;-61
2021/12/24 12:14:10;;;;;;;7.38;1.80;;;;;;;7.94;82.75;96427.53;5026815;28;20044;-66
2021/12/24 12:16:57;;;;;;;3.72;1.48;;;;;;;8.05;82.17;96430.31;5020669;28;20444;-65
2021/12/24 12:19:48;;;;;;;5.45;1.90;;;;;;;7.87;82.59;96429.63;5034991;28;20926;-66
2021/12/24 12:22:33;;;;;;;3.85;1.25;;;;;;;7.67;83.70;96420.31;5027080;28;20661;-66
2021/12/24 12:25:01;;;;;;;5.97;2.20;;;;;;;7.64;83.49;96412.75;5041048;28;20159;-63
2021/12/24 12:27:45;;;;;;;3.58;1.70;;;;;;;7.59;84.38;96417.28;5031845;28;20815;-62
2021/12/24 12:30:39;;;;;;;2.95;1.40;;;;;;;7.68;83.40;96421.13;5013758;28;20049;-63
2021/12/24 12:33:31;;;;;;;3.60;1.70;;;;;;;7.72;83.31;96413.34;5029312;28;20064;-63
2021/12/24 12:36:02;;;;;;;2.42;1.20;;;;;;;7.61;83.88;96413.25;5020859;28;20049;-61
2021/12/24 12:38:40;;;;;;;4.80;1.50;;;;;;;7.67;83.52;96414.13;5039922;28;20037;-62
2021/12/24 12:41:30;;;;;;;3.70;1.42;;;;;;;7.65;83.37;96406.28;5038440;28;20617;-61
2021/12/24 12:43:59;;;;;;;3.97;1.10;;;;;;;7.78;83.08;96409.63;5030502;28;20474;-63
2021/12/24 12:46:32;;;;;;;2.50;1.40;;;;;;;7.66;83.20;96412.47;5041711;28;20044;-63
2021/12/24 12:49:02;;;;;;;2.85;1.20;;;;;;;7.71;82.74;96404.47;5030296;28;20042;-61
2021/12/24 12:51:53;;;;;;;3.03;1.35;;;;;;;7.84;82.51;96402.38;5019814;28;20049;-63
2021/12/24 12:54:41;;;;;;;3.45;1.63;;;;;;;7.55;83.40;96403.50;5020367;28;20049;-61
2021/12/24 12:57:33;;;;;;;2.70;1.30;;;;;;;7.67;83.14;96408.72;5040715;28;20045;-62
2021/12/24 13:00:19;;;;;;;3.92;1.40;;;;;;;7.78;82.63;96404.22;5021067;28;20042;-63
2021/12/24 13:05:29;;;;;;;;;;;;;;;7.55;83.27;96390.03;5022153;28;20049;-64
2021/12/24 13:08:00;;;;;;;3.45;1.33;;;;;;;7.57;83.21;96393.28;5030261;28;19933;-63
2021/12/24 13:10:27;;;;;;;3.28;1.42;;;;;;;7.52;83.61;96387.88;5024422;28;20041;-63
2021/12/24 13:13:02;;;;;;;4.50;1.70;;;;;;;7.59;83.46;96388.44;5024254;28;20429;-62
2021/12/24 13:15:28;;;;;;;2.83;1.27;;;;;;;7.53;83.58;96390.28;5016413;28;20389;-62
2021/12/24 13:18:01;;;;;;;3.75;1.60;;;;;;;7.58;83.58;96384.13;5027182;28;20041;-62
2021/12/24 13:22:26;;;;;;;3.13;1.42;;;;;;;7.57;83.31;96379.00;5022759;28;20394;-62
2021/12/24 13:23:22;;;;;;;2.63;1.20;;;;;;;7.64;83.02;96380.41;5028588;28;20520;-62
2021/12/24 13:25:48;;;;;;;5.25;1.75;;;;;;;7.64;82.66;96380.41;5015472;28;20037;-62
2021/12/24 13:28:15;;;;;;;2.25;1.48;;;;;;;7.62;82.92;96377.16;5023350;28;20037;-62
2021/12/24 13:30:42;;;;;;;3.70;2.00;;;;;;;7.59;83.04;96372.28;5025930;28;20091;-62
2021/12/24 13:33:08;;;;;;;3.65;1.50;;;;;;;7.57;82.71;96369.03;5021885;28;20077;-62
2021/12/24 13:35:40;;;;;;;4.00;1.60;;;;;;;7.58;82.94;96367.97;5023352;28;20057;-62
2021/12/24 13:38:18;;;;;;;5.82;1.70;;;;;;;7.66;82.98;96370.19;5035365;28;20459;-62